SYF weather

Silva Bay Seaplane Base
Gabriola Island, British Columbia, Canada

Public forecast

Using degrees Celsius for public forecast. Weather courtesy of forecast.io.

METAR (pilot weather report)

Closest report is Nanaimo Airport, 8.9 nm (16.5 km) SW. Retrieved 2019/07/17 19:00 UTC (39 minutes ago):

CYCD 171900Z 11007KT 090V150 15SM FEW028 BKN042 BKN100 21/14 A2975 RMK CF1SC6AC1 AC TR SLP076 DENSITY ALT 1000FT

TAF (pilot weather forecast)

Closest forecast is Nanaimo Airport, 8.9 nm (16.5 km) SW. Retrieved 2019/07/17 18:00 UTC (2 hours ago):

TAF CYCD 171738Z 1718/1804 14008KT P6SM SCT040 BKN100 TEMPO 1718/1721 P6SM -SHRA BKN040 OVC100 FM172100 20010KT P6SM SCT050 BKN120 RMK NXT FCST BY 180000Z